sensor_id;sensor_type;location;lat;lon;timestamp;temperature;humidity
30534;DHT22;17318;52.390;9.754;2022-07-29T00:00:04;19.40;59.00
30534;DHT22;17318;52.390;9.754;2022-07-29T00:02:30;19.40;59.00
30534;DHT22;17318;52.390;9.754;2022-07-29T00:04:57;19.40;59.10
30534;DHT22;17318;52.390;9.754;2022-07-29T00:07:24;19.40;59.10
30534;DHT22;17318;52.390;9.754;2022-07-29T00:09:50;19.40;59.30
30534;DHT22;17318;52.390;9.754;2022-07-29T00:12:15;19.40;59.40
30534;DHT22;17318;52.390;9.754;2022-07-29T00:14:41;19.40;59.20
30534;DHT22;17318;52.390;9.754;2022-07-29T00:17:07;19.30;60.10
30534;DHT22;17318;52.390;9.754;2022-07-29T00:19:33;19.40;59.70
30534;DHT22;17318;52.390;9.754;2022-07-29T00:22:00;19.30;59.60
30534;DHT22;17318;52.390;9.754;2022-07-29T00:24:26;19.40;59.40
30534;DHT22;17318;52.390;9.754;2022-07-29T00:26:52;19.30;59.60
30534;DHT22;17318;52.390;9.754;2022-07-29T00:29:18;19.40;59.60
30534;DHT22;17318;52.390;9.754;2022-07-29T00:31:44;19.30;59.70
30534;DHT22;17318;52.390;9.754;2022-07-29T00:34:09;19.30;59.90
30534;DHT22;17318;52.390;9.754;2022-07-29T00:36:56;19.30;60.00
30534;DHT22;17318;52.390;9.754;2022-07-29T00:39:21;19.30;59.80
30534;DHT22;17318;52.390;9.754;2022-07-29T00:41:47;19.10;60.10
30534;DHT22;17318;52.390;9.754;2022-07-29T00:44:12;19.10;60.20
30534;DHT22;17318;52.390;9.754;2022-07-29T00:46:38;19.10;60.30
30534;DHT22;17318;52.390;9.754;2022-07-29T00:49:04;19.20;60.60
30534;DHT22;17318;52.390;9.754;2022-07-29T00:51:30;19.10;60.20
30534;DHT22;17318;52.390;9.754;2022-07-29T00:53:56;19.20;60.30
30534;DHT22;17318;52.390;9.754;2022-07-29T00:56:22;19.20;60.20
30534;DHT22;17318;52.390;9.754;2022-07-29T00:58:50;19.30;60.20
30534;DHT22;17318;52.390;9.754;2022-07-29T01:01:16;19.20;60.60
30534;DHT22;17318;52.390;9.754;2022-07-29T01:03:42;19.10;60.40
30534;DHT22;17318;52.390;9.754;2022-07-29T01:06:09;19.20;60.50
30534;DHT22;17318;52.390;9.754;2022-07-29T01:08:35;19.10;60.60
30534;DHT22;17318;52.390;9.754;2022-07-29T01:11:04;19.10;60.40
30534;DHT22;17318;52.390;9.754;2022-07-29T01:13:31;19.10;60.70
30534;DHT22;17318;52.390;9.754;2022-07-29T01:16:01;19.10;60.40
30534;DHT22;17318;52.390;9.754;2022-07-29T01:18:33;19.10;60.70
30534;DHT22;17318;52.390;9.754;2022-07-29T01:28:47;19.00;61.00
30534;DHT22;17318;52.390;9.754;2022-07-29T01:31:18;18.90;60.70
30534;DHT22;17318;52.390;9.754;2022-07-29T01:33:50;18.90;60.80
30534;DHT22;17318;52.390;9.754;2022-07-29T01:36:47;18.90;61.10
30534;DHT22;17318;52.390;9.754;2022-07-29T01:39:23;18.90;61.10
30534;DHT22;17318;52.390;9.754;2022-07-29T01:41:58;18.90;60.60
30534;DHT22;17318;52.390;9.754;2022-07-29T01:44:35;18.80;61.50
30534;DHT22;17318;52.390;9.754;2022-07-29T01:47:08;18.80;61.40
30534;DHT22;17318;52.390;9.754;2022-07-29T01:49:36;18.80;61.30
30534;DHT22;17318;52.390;9.754;2022-07-29T01:52:11;18.70;61.40
30534;DHT22;17318;52.390;9.754;2022-07-29T01:54:49;18.80;61.70
30534;DHT22;17318;52.390;9.754;2022-07-29T01:57:18;18.70;61.70
30534;DHT22;17318;52.390;9.754;2022-07-29T01:59:46;18.70;61.60
30534;DHT22;17318;52.390;9.754;2022-07-29T02:02:15;18.60;61.60
30534;DHT22;17318;52.390;9.754;2022-07-29T02:04:44;18.60;62.00
30534;DHT22;17318;52.390;9.754;2022-07-29T02:07:17;18.60;62.10
30534;DHT22;17318;52.390;9.754;2022-07-29T02:09:44;18.60;62.20
30534;DHT22;17318;52.390;9.754;2022-07-29T02:12:11;18.60;61.90
30534;DHT22;17318;52.390;9.754;2022-07-29T02:14:45;18.60;62.40
30534;DHT22;17318;52.390;9.754;2022-07-29T02:17:12;18.60;62.70
30534;DHT22;17318;52.390;9.754;2022-07-29T02:19:40;18.50;62.60
30534;DHT22;17318;52.390;9.754;2022-07-29T02:22:08;18.50;62.60
30534;DHT22;17318;52.390;9.754;2022-07-29T02:24:37;18.50;62.40
30534;DHT22;17318;52.390;9.754;2022-07-29T02:27:07;18.40;63.00
30534;DHT22;17318;52.390;9.754;2022-07-29T02:29:34;18.40;62.90
30534;DHT22;17318;52.390;9.754;2022-07-29T02:32:03;18.40;62.90
30534;DHT22;17318;52.390;9.754;2022-07-29T02:34:30;18.40;63.10
30534;DHT22;17318;52.390;9.754;2022-07-29T02:36:58;18.30;63.30
30534;DHT22;17318;52.390;9.754;2022-07-29T02:39:24;18.30;63.50
30534;DHT22;17318;52.390;9.754;2022-07-29T02:41:55;18.30;63.40
30534;DHT22;17318;52.390;9.754;2022-07-29T02:44:25;18.20;63.70
30534;DHT22;17318;52.390;9.754;2022-07-29T02:55:10;18.20;64.10
30534;DHT22;17318;52.390;9.754;2022-07-29T02:57:43;18.20;63.80
30534;DHT22;17318;52.390;9.754;2022-07-29T03:00:10;18.20;64.30
30534;DHT22;17318;52.390;9.754;2022-07-29T03:02:39;18.20;64.20
30534;DHT22;17318;52.390;9.754;2022-07-29T03:05:09;18.20;64.00
30534;DHT22;17318;52.390;9.754;2022-07-29T03:07:37;18.10;64.20
30534;DHT22;17318;52.390;9.754;2022-07-29T03:10:05;18.20;64.20
30534;DHT22;17318;52.390;9.754;2022-07-29T03:12:31;18.10;64.40
30534;DHT22;17318;52.390;9.754;2022-07-29T03:14:58;18.10;64.80
30534;DHT22;17318;52.390;9.754;2022-07-29T03:17:24;18.10;64.40
30534;DHT22;17318;52.390;9.754;2022-07-29T03:19:51;18.20;64.60
30534;DHT22;17318;52.390;9.754;2022-07-29T03:22:16;18.10;64.50
30534;DHT22;17318;52.390;9.754;2022-07-29T03:24:42;18.10;64.80
30534;DHT22;17318;52.390;9.754;2022-07-29T03:27:08;18.20;65.00
30534;DHT22;17318;52.390;9.754;2022-07-29T03:29:33;18.10;64.80
30534;DHT22;17318;52.390;9.754;2022-07-29T03:32:05;18.00;65.00
30534;DHT22;17318;52.390;9.754;2022-07-29T03:34:31;18.00;65.30
30534;DHT22;17318;52.390;9.754;2022-07-29T03:36:57;18.10;65.10
30534;DHT22;17318;52.390;9.754;2022-07-29T03:39:26;18.10;65.40
30534;DHT22;17318;52.390;9.754;2022-07-29T03:41:55;18.10;64.70
30534;DHT22;17318;52.390;9.754;2022-07-29T03:44:21;18.10;65.60
30534;DHT22;17318;52.390;9.754;2022-07-29T03:46:49;18.00;66.00
30534;DHT22;17318;52.390;9.754;2022-07-29T03:49:16;18.10;66.10
30534;DHT22;17318;52.390;9.754;2022-07-29T03:51:44;18.10;65.70
30534;DHT22;17318;52.390;9.754;2022-07-29T03:54:10;18.00;65.70
30534;DHT22;17318;52.390;9.754;2022-07-29T03:56:40;18.10;65.70
30534;DHT22;17318;52.390;9.754;2022-07-29T03:59:08;18.00;66.10
30534;DHT22;17318;52.390;9.754;2022-07-29T04:01:35;18.00;66.80
30534;DHT22;17318;52.390;9.754;2022-07-29T04:04:02;18.00;66.60
30534;DHT22;17318;52.390;9.754;2022-07-29T04:06:38;18.00;66.80
30534;DHT22;17318;52.390;9.754;2022-07-29T04:09:04;18.00;66.10
30534;DHT22;17318;52.390;9.754;2022-07-29T04:11:29;17.90;66.60
30534;DHT22;17318;52.390;9.754;2022-07-29T04:13:55;17.90;66.60
30534;DHT22;17318;52.390;9.754;2022-07-29T04:16:21;17.90;67.20
30534;DHT22;17318;52.390;9.754;2022-07-29T04:18:46;17.90;67.10
30534;DHT22;17318;52.390;9.754;2022-07-29T04:21:12;18.00;67.20
30534;DHT22;17318;52.390;9.754;2022-07-29T04:23:38;18.00;66.60
30534;DHT22;17318;52.390;9.754;2022-07-29T04:26:07;17.90;67.10
30534;DHT22;17318;52.390;9.754;2022-07-29T04:28:35;18.00;67.10
30534;DHT22;17318;52.390;9.754;2022-07-29T04:31:00;18.00;67.10
30534;DHT22;17318;52.390;9.754;2022-07-29T04:33:31;18.00;67.60
30534;DHT22;17318;52.390;9.754;2022-07-29T04:35:56;17.90;67.50
30534;DHT22;17318;52.390;9.754;2022-07-29T04:38:22;17.90;67.90
30534;DHT22;17318;52.390;9.754;2022-07-29T04:40:48;17.90;68.20
30534;DHT22;17318;52.390;9.754;2022-07-29T04:43:15;17.90;68.60
30534;DHT22;17318;52.390;9.754;2022-07-29T04:45:41;17.90;68.50
30534;DHT22;17318;52.390;9.754;2022-07-29T04:48:07;17.90;68.20
30534;DHT22;17318;52.390;9.754;2022-07-29T04:50:32;18.00;68.20
30534;DHT22;17318;52.390;9.754;2022-07-29T04:52:58;17.90;68.70
30534;DHT22;17318;52.390;9.754;2022-07-29T04:55:23;17.90;68.60
30534;DHT22;17318;52.390;9.754;2022-07-29T04:57:50;17.90;68.20
30534;DHT22;17318;52.390;9.754;2022-07-29T05:00:16;18.00;68.70
30534;DHT22;17318;52.390;9.754;2022-07-29T05:02:41;17.90;68.90
30534;DHT22;17318;52.390;9.754;2022-07-29T05:05:07;17.90;69.10
30534;DHT22;17318;52.390;9.754;2022-07-29T05:07:33;17.90;69.00
30534;DHT22;17318;52.390;9.754;2022-07-29T05:09:59;18.00;69.30
30534;DHT22;17318;52.390;9.754;2022-07-29T05:12:25;17.90;69.90
30534;DHT22;17318;52.390;9.754;2022-07-29T05:14:51;18.00;69.40
30534;DHT22;17318;52.390;9.754;2022-07-29T05:17:17;18.00;69.50
30534;DHT22;17318;52.390;9.754;2022-07-29T05:19:43;18.00;69.80
30534;DHT22;17318;52.390;9.754;2022-07-29T05:22:08;18.00;70.10
30534;DHT22;17318;52.390;9.754;2022-07-29T05:24:34;18.00;69.90
30534;DHT22;17318;52.390;9.754;2022-07-29T05:27:00;18.10;70.30
30534;DHT22;17318;52.390;9.754;2022-07-29T05:29:25;18.10;70.10
30534;DHT22;17318;52.390;9.754;2022-07-29T05:31:51;18.10;70.70
30534;DHT22;17318;52.390;9.754;2022-07-29T05:34:19;18.10;70.60
30534;DHT22;17318;52.390;9.754;2022-07-29T05:36:45;18.10;70.80
30534;DHT22;17318;52.390;9.754;2022-07-29T05:39:11;18.20;70.70
30534;DHT22;17318;52.390;9.754;2022-07-29T05:41:38;18.30;70.70
30534;DHT22;17318;52.390;9.754;2022-07-29T05:44:04;18.30;70.60
30534;DHT22;17318;52.390;9.754;2022-07-29T05:46:29;18.30;71.00
30534;DHT22;17318;52.390;9.754;2022-07-29T05:48:56;18.30;71.00
30534;DHT22;17318;52.390;9.754;2022-07-29T05:51:22;18.40;71.00
30534;DHT22;17318;52.390;9.754;2022-07-29T05:53:47;18.40;71.00
30534;DHT22;17318;52.390;9.754;2022-07-29T05:56:13;18.40;71.00
30534;DHT22;17318;52.390;9.754;2022-07-29T05:58:39;18.40;71.20
30534;DHT22;17318;52.390;9.754;2022-07-29T06:01:08;18.40;71.30
30534;DHT22;17318;52.390;9.754;2022-07-29T06:03:34;18.40;71.40
30534;DHT22;17318;52.390;9.754;2022-07-29T06:06:00;18.50;71.40
30534;DHT22;17318;52.390;9.754;2022-07-29T06:08:28;18.50;71.70
30534;DHT22;17318;52.390;9.754;2022-07-29T06:10:54;18.50;71.40
30534;DHT22;17318;52.390;9.754;2022-07-29T06:13:19;18.60;71.90
30534;DHT22;17318;52.390;9.754;2022-07-29T06:15:45;18.60;71.70
30534;DHT22;17318;52.390;9.754;2022-07-29T06:18:12;18.70;71.50
30534;DHT22;17318;52.390;9.754;2022-07-29T06:20:38;18.70;71.90
30534;DHT22;17318;52.390;9.754;2022-07-29T06:23:04;18.70;71.90
30534;DHT22;17318;52.390;9.754;2022-07-29T06:25:30;18.80;72.10
30534;DHT22;17318;52.390;9.754;2022-07-29T06:28:00;18.90;72.00
30534;DHT22;17318;52.390;9.754;2022-07-29T06:30:26;19.00;72.10
30534;DHT22;17318;52.390;9.754;2022-07-29T06:32:52;19.00;72.00
30534;DHT22;17318;52.390;9.754;2022-07-29T06:35:17;19.10;72.20
30534;DHT22;17318;52.390;9.754;2022-07-29T06:37:43;19.30;71.90
30534;DHT22;17318;52.390;9.754;2022-07-29T06:40:09;19.40;72.10
30534;DHT22;17318;52.390;9.754;2022-07-29T06:42:54;19.40;71.80
30534;DHT22;17318;52.390;9.754;2022-07-29T06:45:20;19.50;71.40
30534;DHT22;17318;52.390;9.754;2022-07-29T06:47:46;19.60;71.00
30534;DHT22;17318;52.390;9.754;2022-07-29T06:50:11;19.70;71.20
30534;DHT22;17318;52.390;9.754;2022-07-29T06:52:40;19.70;71.30
30534;DHT22;17318;52.390;9.754;2022-07-29T06:55:07;19.80;71.30
30534;DHT22;17318;52.390;9.754;2022-07-29T06:57:33;19.80;71.10
30534;DHT22;17318;52.390;9.754;2022-07-29T06:59:59;19.90;71.10
30534;DHT22;17318;52.390;9.754;2022-07-29T07:02:25;20.00;71.00
30534;DHT22;17318;52.390;9.754;2022-07-29T07:04:51;20.00;70.80
30534;DHT22;17318;52.390;9.754;2022-07-29T07:07:17;20.00;70.70
30534;DHT22;17318;52.390;9.754;2022-07-29T07:09:43;20.00;70.70
30534;DHT22;17318;52.390;9.754;2022-07-29T07:12:09;20.10;70.40
30534;DHT22;17318;52.390;9.754;2022-07-29T07:14:34;20.10;70.70
30534;DHT22;17318;52.390;9.754;2022-07-29T07:17:00;20.20;70.40
30534;DHT22;17318;52.390;9.754;2022-07-29T07:19:26;20.30;70.40
30534;DHT22;17318;52.390;9.754;2022-07-29T07:21:55;20.40;70.50
30534;DHT22;17318;52.390;9.754;2022-07-29T07:24:21;20.50;70.10
30534;DHT22;17318;52.390;9.754;2022-07-29T07:26:47;20.60;70.20
30534;DHT22;17318;52.390;9.754;2022-07-29T07:29:12;20.70;70.00
30534;DHT22;17318;52.390;9.754;2022-07-29T07:31:38;20.70;69.60
30534;DHT22;17318;52.390;9.754;2022-07-29T07:34:04;20.80;69.60
30534;DHT22;17318;52.390;9.754;2022-07-29T07:36:30;20.90;68.70
30534;DHT22;17318;52.390;9.754;2022-07-29T07:38:56;20.90;69.00
30534;DHT22;17318;52.390;9.754;2022-07-29T07:41:22;21.00;68.70
30534;DHT22;17318;52.390;9.754;2022-07-29T07:43:48;21.10;68.60
30534;DHT22;17318;52.390;9.754;2022-07-29T07:46:14;21.10;68.40
30534;DHT22;17318;52.390;9.754;2022-07-29T07:48:40;21.10;68.10
30534;DHT22;17318;52.390;9.754;2022-07-29T07:51:06;21.10;68.30
30534;DHT22;17318;52.390;9.754;2022-07-29T07:53:32;21.10;67.70
30534;DHT22;17318;52.390;9.754;2022-07-29T07:55:58;21.10;68.40
30534;DHT22;17318;52.390;9.754;2022-07-29T07:58:24;21.10;67.40
30534;DHT22;17318;52.390;9.754;2022-07-29T08:00:50;21.10;67.80
30534;DHT22;17318;52.390;9.754;2022-07-29T08:03:15;21.10;68.30
30534;DHT22;17318;52.390;9.754;2022-07-29T08:05:41;21.10;67.90
30534;DHT22;17318;52.390;9.754;2022-07-29T08:08:07;21.10;67.90
30534;DHT22;17318;52.390;9.754;2022-07-29T08:10:33;21.10;67.80
30534;DHT22;17318;52.390;9.754;2022-07-29T08:13:21;21.10;67.70
30534;DHT22;17318;52.390;9.754;2022-07-29T08:15:48;21.10;67.60
30534;DHT22;17318;52.390;9.754;2022-07-29T08:18:23;21.10;67.60
30534;DHT22;17318;52.390;9.754;2022-07-29T08:20:50;21.10;67.40
30534;DHT22;17318;52.390;9.754;2022-07-29T08:23:15;21.10;67.80
30534;DHT22;17318;52.390;9.754;2022-07-29T08:25:41;21.20;67.80
30534;DHT22;17318;52.390;9.754;2022-07-29T08:28:07;21.10;67.60
30534;DHT22;17318;52.390;9.754;2022-07-29T08:30:34;21.20;68.00
30534;DHT22;17318;52.390;9.754;2022-07-29T08:33:00;21.10;68.00
30534;DHT22;17318;52.390;9.754;2022-07-29T08:35:26;21.10;67.90
30534;DHT22;17318;52.390;9.754;2022-07-29T08:37:53;21.20;68.00
30534;DHT22;17318;52.390;9.754;2022-07-29T08:40:19;21.20;67.60
30534;DHT22;17318;52.390;9.754;2022-07-29T08:42:46;21.20;67.70
30534;DHT22;17318;52.390;9.754;2022-07-29T08:45:12;21.20;67.70
30534;DHT22;17318;52.390;9.754;2022-07-29T08:47:40;21.20;68.00
30534;DHT22;17318;52.390;9.754;2022-07-29T08:50:07;21.20;68.00
30534;DHT22;17318;52.390;9.754;2022-07-29T08:52:36;21.30;68.20
30534;DHT22;17318;52.390;9.754;2022-07-29T08:55:04;21.30;68.30
30534;DHT22;17318;52.390;9.754;2022-07-29T08:57:30;21.20;68.00
30534;DHT22;17318;52.390;9.754;2022-07-29T08:59:57;21.30;68.10
30534;DHT22;17318;52.390;9.754;2022-07-29T09:02:26;21.30;68.10
30534;DHT22;17318;52.390;9.754;2022-07-29T09:04:54;21.30;68.40
30534;DHT22;17318;52.390;9.754;2022-07-29T09:07:19;21.40;68.50
30534;DHT22;17318;52.390;9.754;2022-07-29T09:09:45;21.40;68.50
30534;DHT22;17318;52.390;9.754;2022-07-29T09:12:12;21.40;68.40
30534;DHT22;17318;52.390;9.754;2022-07-29T09:14:38;21.40;68.40
30534;DHT22;17318;52.390;9.754;2022-07-29T09:17:04;21.50;68.40
30534;DHT22;17318;52.390;9.754;2022-07-29T09:19:31;21.60;68.40
30534;DHT22;17318;52.390;9.754;2022-07-29T09:22:00;21.70;68.30
30534;DHT22;17318;52.390;9.754;2022-07-29T09:24:35;21.80;68.30
30534;DHT22;17318;52.390;9.754;2022-07-29T09:27:25;21.90;68.50
30534;DHT22;17318;52.390;9.754;2022-07-29T09:30:04;22.00;68.60
30534;DHT22;17318;52.390;9.754;2022-07-29T09:32:32;22.10;68.40
30534;DHT22;17318;52.390;9.754;2022-07-29T09:35:18;22.20;67.90
30534;DHT22;17318;52.390;9.754;2022-07-29T09:37:45;22.20;67.50
30534;DHT22;17318;52.390;9.754;2022-07-29T09:40:16;22.20;67.70
30534;DHT22;17318;52.390;9.754;2022-07-29T09:42:43;22.20;67.60
30534;DHT22;17318;52.390;9.754;2022-07-29T09:45:09;22.20;67.10
30534;DHT22;17318;52.390;9.754;2022-07-29T09:47:43;22.30;67.60
30534;DHT22;17318;52.390;9.754;2022-07-29T09:50:15;22.30;67.30
30534;DHT22;17318;52.390;9.754;2022-07-29T09:52:49;22.30;67.10
30534;DHT22;17318;52.390;9.754;2022-07-29T09:55:15;22.30;67.70
30534;DHT22;17318;52.390;9.754;2022-07-29T09:57:41;22.30;67.50
30534;DHT22;17318;52.390;9.754;2022-07-29T10:00:10;22.30;67.30
30534;DHT22;17318;52.390;9.754;2022-07-29T10:02:38;22.40;67.60
30534;DHT22;17318;52.390;9.754;2022-07-29T10:05:06;22.40;67.40
30534;DHT22;17318;52.390;9.754;2022-07-29T10:10:28;22.50;67.30
30534;DHT22;17318;52.390;9.754;2022-07-29T10:12:59;22.50;67.60
30534;DHT22;17318;52.390;9.754;2022-07-29T10:15:29;22.60;67.50
30534;DHT22;17318;52.390;9.754;2022-07-29T10:17:56;22.60;67.30
30534;DHT22;17318;52.390;9.754;2022-07-29T10:20:23;22.60;68.10
30534;DHT22;17318;52.390;9.754;2022-07-29T10:22:50;22.70;67.40
30534;DHT22;17318;52.390;9.754;2022-07-29T10:25:17;22.80;67.50
30534;DHT22;17318;52.390;9.754;2022-07-29T10:27:47;23.00;67.60
30534;DHT22;17318;52.390;9.754;2022-07-29T10:30:14;23.10;67.20
30534;DHT22;17318;52.390;9.754;2022-07-29T10:38:41;23.20;66.60
30534;DHT22;17318;52.390;9.754;2022-07-29T10:44:08;23.30;66.70
30534;DHT22;17318;52.390;9.754;2022-07-29T10:46:39;23.30;66.90
30534;DHT22;17318;52.390;9.754;2022-07-29T10:49:17;23.30;66.60
30534;DHT22;17318;52.390;9.754;2022-07-29T10:51:56;23.30;66.60
30534;DHT22;17318;52.390;9.754;2022-07-29T10:57:23;23.40;66.40
30534;DHT22;17318;52.390;9.754;2022-07-29T11:05:06;23.40;66.70
30534;DHT22;17318;52.390;9.754;2022-07-29T11:07:34;23.40;66.80
30534;DHT22;17318;52.390;9.754;2022-07-29T11:15:05;23.40;66.70
30534;DHT22;17318;52.390;9.754;2022-07-29T11:20:34;23.40;66.70
30534;DHT22;17318;52.390;9.754;2022-07-29T11:23:00;23.40;66.80
30534;DHT22;17318;52.390;9.754;2022-07-29T11:25:26;23.40;67.50
30534;DHT22;17318;52.390;9.754;2022-07-29T11:27:54;23.40;67.80
30534;DHT22;17318;52.390;9.754;2022-07-29T11:30:20;23.40;67.60
30534;DHT22;17318;52.390;9.754;2022-07-29T11:32:45;23.40;67.80
30534;DHT22;17318;52.390;9.754;2022-07-29T11:35:17;23.40;67.70
30534;DHT22;17318;52.390;9.754;2022-07-29T11:37:46;23.30;68.40
30534;DHT22;17318;52.390;9.754;2022-07-29T11:40:14;23.30;68.50
30534;DHT22;17318;52.390;9.754;2022-07-29T11:42:41;23.30;67.90
30534;DHT22;17318;52.390;9.754;2022-07-29T11:45:17;23.40;68.00
30534;DHT22;17318;52.390;9.754;2022-07-29T11:50:14;23.40;69.10
30534;DHT22;17318;52.390;9.754;2022-07-29T11:52:42;23.40;69.60
30534;DHT22;17318;52.390;9.754;2022-07-29T11:55:11;23.50;69.30
30534;DHT22;17318;52.390;9.754;2022-07-29T11:57:44;23.40;68.80
30534;DHT22;17318;52.390;9.754;2022-07-29T12:00:11;23.40;69.10
30534;DHT22;17318;52.390;9.754;2022-07-29T12:02:43;23.40;68.70
30534;DHT22;17318;52.390;9.754;2022-07-29T12:05:09;23.50;69.00
30534;DHT22;17318;52.390;9.754;2022-07-29T12:07:38;23.60;69.10
30534;DHT22;17318;52.390;9.754;2022-07-29T12:10:06;23.60;68.90
30534;DHT22;17318;52.390;9.754;2022-07-29T12:12:32;23.70;68.60
30534;DHT22;17318;52.390;9.754;2022-07-29T12:15:10;23.80;69.10
30534;DHT22;17318;52.390;9.754;2022-07-29T12:17:36;23.70;68.00
30534;DHT22;17318;52.390;9.754;2022-07-29T12:20:03;23.80;69.00
30534;DHT22;17318;52.390;9.754;2022-07-29T12:22:35;23.80;69.00
30534;DHT22;17318;52.390;9.754;2022-07-29T12:25:13;23.90;68.80
30534;DHT22;17318;52.390;9.754;2022-07-29T12:27:44;23.90;69.60
30534;DHT22;17318;52.390;9.754;2022-07-29T12:30:12;24.00;68.90
30534;DHT22;17318;52.390;9.754;2022-07-29T12:32:42;24.10;68.50
30534;DHT22;17318;52.390;9.754;2022-07-29T12:35:17;24.20;68.60
30534;DHT22;17318;52.390;9.754;2022-07-29T12:37:46;24.30;67.20
30534;DHT22;17318;52.390;9.754;2022-07-29T12:40:15;24.30;67.20
30534;DHT22;17318;52.390;9.754;2022-07-29T12:43:20;24.40;66.90
30534;DHT22;17318;52.390;9.754;2022-07-29T12:45:49;24.40;67.00
30534;DHT22;17318;52.390;9.754;2022-07-29T12:48:16;24.60;67.60
30534;DHT22;17318;52.390;9.754;2022-07-29T12:50:54;24.60;66.80
30534;DHT22;17318;52.390;9.754;2022-07-29T12:53:20;24.70;66.40
30534;DHT22;17318;52.390;9.754;2022-07-29T12:55:49;24.80;66.30
30534;DHT22;17318;52.390;9.754;2022-07-29T13:01:09;24.90;65.70
30534;DHT22;17318;52.390;9.754;2022-07-29T13:03:56;25.00;66.30
30534;DHT22;17318;52.390;9.754;2022-07-29T13:09:04;25.10;65.40
30534;DHT22;17318;52.390;9.754;2022-07-29T13:11:56;25.10;64.70
30534;DHT22;17318;52.390;9.754;2022-07-29T13:14:34;25.10;64.90
30534;DHT22;17318;52.390;9.754;2022-07-29T13:17:06;25.20;64.90
30534;DHT22;17318;52.390;9.754;2022-07-29T13:19:48;25.20;65.70
30534;DHT22;17318;52.390;9.754;2022-07-29T13:22:17;25.20;65.70
30534;DHT22;17318;52.390;9.754;2022-07-29T13:24:53;25.20;66.80
30534;DHT22;17318;52.390;9.754;2022-07-29T13:27:27;25.20;64.90
30534;DHT22;17318;52.390;9.754;2022-07-29T13:29:55;25.30;64.90
30534;DHT22;17318;52.390;9.754;2022-07-29T13:32:23;25.20;64.10
30534;DHT22;17318;52.390;9.754;2022-07-29T13:34:49;25.30;63.90
30534;DHT22;17318;52.390;9.754;2022-07-29T13:37:15;25.30;63.90
30534;DHT22;17318;52.390;9.754;2022-07-29T13:39:42;25.20;63.40
30534;DHT22;17318;52.390;9.754;2022-07-29T13:42:08;25.20;63.00
30534;DHT22;17318;52.390;9.754;2022-07-29T13:44:35;25.30;63.30
30534;DHT22;17318;52.390;9.754;2022-07-29T13:47:01;25.20;61.80
30534;DHT22;17318;52.390;9.754;2022-07-29T13:49:28;25.30;61.80
30534;DHT22;17318;52.390;9.754;2022-07-29T13:51:54;25.30;62.00
30534;DHT22;17318;52.390;9.754;2022-07-29T13:54:20;25.30;62.10
30534;DHT22;17318;52.390;9.754;2022-07-29T13:56:45;25.30;61.40
30534;DHT22;17318;52.390;9.754;2022-07-29T13:59:11;25.30;61.50
30534;DHT22;17318;52.390;9.754;2022-07-29T14:01:38;25.30;61.60
30534;DHT22;17318;52.390;9.754;2022-07-29T14:04:06;25.40;61.40
30534;DHT22;17318;52.390;9.754;2022-07-29T14:06:32;25.40;61.20
30534;DHT22;17318;52.390;9.754;2022-07-29T14:08:58;25.40;61.00
30534;DHT22;17318;52.390;9.754;2022-07-29T14:11:24;25.50;60.80
30534;DHT22;17318;52.390;9.754;2022-07-29T14:13:50;25.60;60.50
30534;DHT22;17318;52.390;9.754;2022-07-29T14:16:15;25.60;59.70
30534;DHT22;17318;52.390;9.754;2022-07-29T14:18:41;25.60;59.80
30534;DHT22;17318;52.390;9.754;2022-07-29T14:21:08;25.60;59.30
30534;DHT22;17318;52.390;9.754;2022-07-29T14:23:33;25.70;59.90
30534;DHT22;17318;52.390;9.754;2022-07-29T14:25:59;25.70;57.80
30534;DHT22;17318;52.390;9.754;2022-07-29T14:28:25;25.70;58.60
30534;DHT22;17318;52.390;9.754;2022-07-29T14:30:51;25.70;59.30
30534;DHT22;17318;52.390;9.754;2022-07-29T14:33:17;25.60;58.80
30534;DHT22;17318;52.390;9.754;2022-07-29T14:35:42;25.70;59.00
30534;DHT22;17318;52.390;9.754;2022-07-29T14:38:09;25.70;59.10
30534;DHT22;17318;52.390;9.754;2022-07-29T14:40:34;25.80;59.00
30534;DHT22;17318;52.390;9.754;2022-07-29T14:43:00;25.80;58.60
30534;DHT22;17318;52.390;9.754;2022-07-29T14:45:26;25.90;59.00
30534;DHT22;17318;52.390;9.754;2022-07-29T14:47:53;25.90;58.80
30534;DHT22;17318;52.390;9.754;2022-07-29T14:50:19;26.00;58.90
30534;DHT22;17318;52.390;9.754;2022-07-29T14:52:45;26.00;59.00
30534;DHT22;17318;52.390;9.754;2022-07-29T14:55:11;26.00;58.90
30534;DHT22;17318;52.390;9.754;2022-07-29T14:57:37;26.00;58.40
30534;DHT22;17318;52.390;9.754;2022-07-29T15:00:06;26.00;58.50
30534;DHT22;17318;52.390;9.754;2022-07-29T15:02:33;26.10;59.10
30534;DHT22;17318;52.390;9.754;2022-07-29T15:04:59;26.10;58.70
30534;DHT22;17318;52.390;9.754;2022-07-29T15:07:25;26.20;57.80
30534;DHT22;17318;52.390;9.754;2022-07-29T15:09:51;26.30;60.20
30534;DHT22;17318;52.390;9.754;2022-07-29T15:12:16;26.30;59.30
30534;DHT22;17318;52.390;9.754;2022-07-29T15:14:42;26.30;57.90
30534;DHT22;17318;52.390;9.754;2022-07-29T15:17:08;26.30;58.00
30534;DHT22;17318;52.390;9.754;2022-07-29T15:19:33;26.30;57.60
30534;DHT22;17318;52.390;9.754;2022-07-29T15:21:59;26.30;62.90
30534;DHT22;17318;52.390;9.754;2022-07-29T15:24:26;26.40;57.90
30534;DHT22;17318;52.390;9.754;2022-07-29T15:26:51;26.30;57.20
30534;DHT22;17318;52.390;9.754;2022-07-29T15:29:17;26.30;56.70
30534;DHT22;17318;52.390;9.754;2022-07-29T15:31:43;26.30;56.70
30534;DHT22;17318;52.390;9.754;2022-07-29T15:34:09;26.30;56.70
30534;DHT22;17318;52.390;9.754;2022-07-29T15:36:35;26.30;56.70
30534;DHT22;17318;52.390;9.754;2022-07-29T15:39:00;26.30;56.00
30534;DHT22;17318;52.390;9.754;2022-07-29T15:41:26;26.30;55.90
30534;DHT22;17318;52.390;9.754;2022-07-29T15:43:52;26.30;56.10
30534;DHT22;17318;52.390;9.754;2022-07-29T15:46:18;26.30;55.10
30534;DHT22;17318;52.390;9.754;2022-07-29T15:49:05;26.20;55.10
30534;DHT22;17318;52.390;9.754;2022-07-29T15:51:31;26.20;54.80
30534;DHT22;17318;52.390;9.754;2022-07-29T15:53:57;26.20;55.30
30534;DHT22;17318;52.390;9.754;2022-07-29T15:56:23;26.20;55.40
30534;DHT22;17318;52.390;9.754;2022-07-29T15:58:49;26.20;56.00
30534;DHT22;17318;52.390;9.754;2022-07-29T16:01:15;26.20;55.30
30534;DHT22;17318;52.390;9.754;2022-07-29T16:03:40;26.10;55.40
30534;DHT22;17318;52.390;9.754;2022-07-29T16:06:06;26.10;55.90
30534;DHT22;17318;52.390;9.754;2022-07-29T16:08:32;26.10;55.00
30534;DHT22;17318;52.390;9.754;2022-07-29T16:10:57;26.00;55.00
30534;DHT22;17318;52.390;9.754;2022-07-29T16:13:23;26.00;54.70
30534;DHT22;17318;52.390;9.754;2022-07-29T16:15:49;25.90;54.80
30534;DHT22;17318;52.390;9.754;2022-07-29T16:18:14;25.90;54.30
30534;DHT22;17318;52.390;9.754;2022-07-29T16:20:40;25.90;54.60
30534;DHT22;17318;52.390;9.754;2022-07-29T16:23:07;25.80;54.30
30534;DHT22;17318;52.390;9.754;2022-07-29T16:25:35;25.80;54.50